»·PEaware :: N221BE KBFL-KSBA

N221BE :: KBFL-KSBA

FLIGHT INFORMATION

Flight Status: Arrived
Operator: Privately registered:
United States
More flights under this callsign
Pilot: Darrin K. (10192)
Aircraft: CESSNA 172 SKYHAWK
(C172)
More flights by this aircraft type
Origin: KBFL Meadows
United States
Destination: KSBA Santa Barbara Mun
United States
More flights between these airports :: More routes between these airports
Route: +MEADO3 RZS
File this flight plan on PilotEdge
Remarks:
Altitude:
(Current/Filed)
4,000ft
Speed:
(Current/Filed)
110kts
Departed: 01-Oct-17 09:54 AM
Arrived: 01-Oct-17 10:50 AM
Distance/Time
Traveled:
72nm/0:56
Distance/Time
To Go:
Arrived

Flight Plot

Page will automatically refresh every two minutes.

Flight plan parsing failed; only flown route is shown


Map Options




Map Legend


Flown Route
Filed Route
Departure Airport
Arrival Airport
Navaid (VOR, NDB)
Fix

Horizontal Profiles

Position Reports

Time Latitude Longitude Heading Altitude Ground
Speed
01-Oct-17 09:33 35.435711 -119.052035 180 510ft 0kts
01-Oct-17 09:34 35.435711 -119.052035 180 510ft 0kts
01-Oct-17 09:35 35.435711 -119.052035 180 510ft 0kts
01-Oct-17 09:36 35.435711 -119.052035 180 510ft 0kts
01-Oct-17 09:37 35.435711 -119.052035 180 510ft 0kts
01-Oct-17 09:38 35.435711 -119.052035 180 510ft 0kts
01-Oct-17 09:39 35.435711 -119.052035 180 510ft 0kts
01-Oct-17 09:40 35.435710 -119.052035 180 510ft 0kts
01-Oct-17 09:41 35.435710 -119.052035 180 510ft 0kts
01-Oct-17 09:42 35.435710 -119.052035 180 510ft 0kts
01-Oct-17 09:43 35.435710 -119.052035 180 510ft 0kts
01-Oct-17 09:44 35.435710 -119.052035 180 510ft 0kts
01-Oct-17 09:45 35.435710 -119.052035 180 510ft 0kts
01-Oct-17 09:46 35.435710 -119.052035 180 510ft 0kts
01-Oct-17 09:47 35.435710 -119.052035 180 510ft 0kts
01-Oct-17 09:48 35.435710 -119.052035 180 510ft 0kts
01-Oct-17 09:49 35.435432 -119.053117 245 510ft 8kts
01-Oct-17 09:50 35.434796 -119.054265 228 510ft 0kts
01-Oct-17 09:51 35.434796 -119.054265 228 510ft 0kts
01-Oct-17 09:52 35.434796 -119.054265 228 510ft 0kts
01-Oct-17 09:53 35.432594 -119.052470 133 510ft 22kts
01-Oct-17 09:54 35.427965 -119.046869 134 510ft 22kts
01-Oct-17 09:55 35.425693 -119.044792 228 510ft 0kts
01-Oct-17 09:56 35.425693 -119.044792 228 510ft 0kts
01-Oct-17 09:57 35.425511 -119.045758 279 510ft 13kts
01-Oct-17 09:58 35.436011 -119.058683 314 993ft 82kts
01-Oct-17 09:59 35.452020 -119.077277 313 2002ft 72kts
01-Oct-17 10:00 35.466388 -119.093775 314 2983ft 70kts
01-Oct-17 10:01 35.480737 -119.110228 313 3902ft 71kts
01-Oct-17 10:02 35.488371 -119.129710 231 4734ft 83kts
01-Oct-17 10:03 35.463041 -119.129805 182 5537ft 95kts
01-Oct-17 10:04 35.440800 -119.117320 110 6326ft 99kts
01-Oct-17 10:05 35.421860 -119.121062 247 6993ft 82kts
01-Oct-17 10:06 35.407726 -119.142194 230 7699ft 83kts
01-Oct-17 10:07 35.387820 -119.161792 222 8028ft 107kts
01-Oct-17 10:08 35.362203 -119.182005 218 8009ft 110kts
01-Oct-17 10:09 35.335555 -119.201364 216 7982ft 112kts
01-Oct-17 10:10 35.308736 -119.220137 216 7980ft 110kts
01-Oct-17 10:11 35.282265 -119.238694 215 7981ft 109kts
01-Oct-17 10:12 35.255839 -119.257170 215 7980ft 110kts
01-Oct-17 10:13 35.229129 -119.275629 217 7980ft 111kts
01-Oct-17 10:14 35.202549 -119.294219 216 7980ft 109kts
01-Oct-17 10:15 35.176032 -119.312657 216 7980ft 109kts
01-Oct-17 10:16 35.149458 -119.331009 216 7980ft 109kts
01-Oct-17 10:17 35.122809 -119.349488 215 7992ft 110kts
01-Oct-17 10:18 35.096157 -119.368011 217 7999ft 110kts
01-Oct-17 10:19 35.069464 -119.386539 217 8000ft 111kts
01-Oct-17 10:20 35.042698 -119.405063 217 7999ft 110kts
01-Oct-17 10:21 35.015906 -119.423482 217 8000ft 110kts
01-Oct-17 10:22 34.989312 -119.441922 215 7999ft 110kts
01-Oct-17 10:23 34.962604 -119.460375 216 7998ft 111kts
01-Oct-17 10:24 34.935641 -119.478959 217 7998ft 110kts
01-Oct-17 10:25 34.908879 -119.497339 216 7998ft 110kts
01-Oct-17 10:26 34.882527 -119.515556 216 7997ft 110kts
01-Oct-17 10:27 34.855812 -119.534023 214 7998ft 110kts
01-Oct-17 10:28 34.829329 -119.552184 216 7996ft 109kts
01-Oct-17 10:29 34.802788 -119.570369 215 7998ft 109kts
01-Oct-17 10:30 34.776236 -119.589031 209 7945ft 109kts
01-Oct-17 10:31 34.750072 -119.606734 207 7945ft 108kts
01-Oct-17 10:32 34.723733 -119.624645 208 7946ft 108kts
01-Oct-17 10:33 34.697561 -119.642563 208 7945ft 108kts
01-Oct-17 10:34 34.671397 -119.660398 200 7943ft 108kts
01-Oct-17 10:35 34.641868 -119.657356 173 7945ft 107kts
01-Oct-17 10:36 34.612327 -119.653147 173 7945ft 107kts
01-Oct-17 10:37 34.582745 -119.648932 173 7945ft 107kts
01-Oct-17 10:38 34.553066 -119.644621 173 7944ft 107kts
01-Oct-17 10:39 34.523504 -119.640439 173 7943ft 107kts
01-Oct-17 10:40 34.493993 -119.636227 173 7941ft 101kts
01-Oct-17 10:41 34.467416 -119.632435 173 7050ft 103kts
01-Oct-17 10:42 34.437376 -119.628095 172 5894ft 112kts
01-Oct-17 10:43 34.406566 -119.623660 173 4938ft 104kts
01-Oct-17 10:44 34.377480 -119.619509 173 4961ft 103kts
01-Oct-17 10:45 34.348642 -119.615344 173 4111ft 107kts
01-Oct-17 10:46 34.323972 -119.622330 260 2884ft 104kts
01-Oct-17 10:47 34.330852 -119.656940 282 1959ft 109kts
01-Oct-17 10:48 34.342990 -119.690469 340 1971ft 117kts
01-Oct-17 10:49 34.374109 -119.703398 340 1973ft 118kts
01-Oct-17 10:50 34.393281 -119.733856 304 1736ft 129kts
01-Oct-17 10:51 34.413005 -119.767148 310 1458ft 120kts
01-Oct-17 10:52 34.427441 -119.799337 280 1059ft 97kts
01-Oct-17 10:53 34.428083 -119.826414 264 303ft 76kts
01-Oct-17 10:54 34.428482 -119.841950 346 17ft 10kts
01-Oct-17 10:55 34.428643 -119.842000 345 17ft 0kts

Navigation Log

Ident Type
Flight plan parsing failed, navigation log unavailable